sensor_id;sensor_type;location;lat;lon;timestamp;pressure;altitude;pressure_sealevel;temperature;humidity
66681;BME280;53575;51.366;12.350;2022-09-27T00:01:07;98404.22;;;12.30;83.45
66681;BME280;53575;51.366;12.350;2022-09-27T00:03:33;98397.31;;;12.29;82.94
66681;BME280;53575;51.366;12.350;2022-09-27T00:06:07;98395.34;;;12.13;84.20
66681;BME280;53575;51.366;12.350;2022-09-27T00:08:34;98387.72;;;12.28;84.72
66681;BME280;53575;51.366;12.350;2022-09-27T00:11:01;98388.78;;;12.24;83.45
66681;BME280;53575;51.366;12.350;2022-09-27T00:13:27;98386.16;;;12.24;83.66
66681;BME280;53575;51.366;12.350;2022-09-27T00:16:00;98376.72;;;12.19;83.44
66681;BME280;53575;51.366;12.350;2022-09-27T00:18:27;98366.22;;;12.40;82.02
66681;BME280;53575;51.366;12.350;2022-09-27T00:20:53;98367.16;;;12.39;82.51
66681;BME280;53575;51.366;12.350;2022-09-27T00:23:18;98360.88;;;12.23;84.01
66681;BME280;53575;51.366;12.350;2022-09-27T00:26:04;98357.34;;;12.24;84.52
66681;BME280;53575;51.366;12.350;2022-09-27T00:28:30;98355.09;;;12.35;83.63
66681;BME280;53575;51.366;12.350;2022-09-27T00:30:56;98357.34;;;12.24;85.03
66681;BME280;53575;51.366;12.350;2022-09-27T00:33:22;98343.31;;;12.25;85.14
66681;BME280;53575;51.366;12.350;2022-09-27T00:35:47;98344.38;;;12.20;85.67
66681;BME280;53575;51.366;12.350;2022-09-27T00:38:13;98330.19;;;12.26;84.48
66681;BME280;53575;51.366;12.350;2022-09-27T00:40:39;98332.22;;;12.19;85.03
66681;BME280;53575;51.366;12.350;2022-09-27T00:43:14;98325.91;;;12.24;85.14
66681;BME280;53575;51.366;12.350;2022-09-27T00:45:40;98319.53;;;12.10;86.28
66681;BME280;53575;51.366;12.350;2022-09-27T00:48:06;98311.22;;;12.21;84.72
66681;BME280;53575;51.366;12.350;2022-09-27T00:50:36;98311.34;;;12.18;84.90
66681;BME280;53575;51.366;12.350;2022-09-27T00:53:26;98304.56;;;12.14;85.16
66681;BME280;53575;51.366;12.350;2022-09-27T00:55:59;98283.44;;;12.17;84.18
66681;BME280;53575;51.366;12.350;2022-09-27T00:58:36;98292.94;;;12.19;84.76
66681;BME280;53575;51.366;12.350;2022-09-27T01:01:06;98292.94;;;12.19;84.57
66681;BME280;53575;51.366;12.350;2022-09-27T01:03:59;98298.47;;;12.13;84.30
66681;BME280;53575;51.366;12.350;2022-09-27T01:06:28;98293.03;;;12.18;84.23
66681;BME280;53575;51.366;12.350;2022-09-27T01:08:53;98290.44;;;12.16;84.99
66681;BME280;53575;51.366;12.350;2022-09-27T01:14:37;98285.31;;;12.15;85.44
66681;BME280;53575;51.366;12.350;2022-09-27T01:34:01;98271.94;;;12.21;83.77
66681;BME280;53575;51.366;12.350;2022-09-27T01:41:57;98251.19;;;12.16;83.64
66681;BME280;53575;51.366;12.350;2022-09-27T01:46:54;98250.47;;;12.13;83.68
66681;BME280;53575;51.366;12.350;2022-09-27T01:49:37;98253.31;;;12.08;83.52
66681;BME280;53575;51.366;12.350;2022-09-27T01:52:07;98253.97;;;12.13;83.19
66681;BME280;53575;51.366;12.350;2022-09-27T01:54:37;98245.94;;;12.16;82.81
66681;BME280;53575;51.366;12.350;2022-09-27T01:57:06;98234.41;;;12.20;82.59
66681;BME280;53575;51.366;12.350;2022-09-27T01:59:38;98236.31;;;12.17;82.71
66681;BME280;53575;51.366;12.350;2022-09-27T02:02:08;98235.69;;;12.12;82.76
66681;BME280;53575;51.366;12.350;2022-09-27T02:04:36;98230.09;;;12.19;82.47
66681;BME280;53575;51.366;12.350;2022-09-27T02:07:09;98227.44;;;12.21;82.32
66681;BME280;53575;51.366;12.350;2022-09-27T02:10:00;98228.31;;;12.20;82.76
66681;BME280;53575;51.366;12.350;2022-09-27T02:12:36;98217.94;;;12.18;82.74
66681;BME280;53575;51.366;12.350;2022-09-27T02:15:08;98225.84;;;12.17;83.61
66681;BME280;53575;51.366;12.350;2022-09-27T02:20:17;98224.09;;;12.17;83.28
66681;BME280;53575;51.366;12.350;2022-09-27T02:23:16;98207.81;;;12.11;83.83
66681;BME280;53575;51.366;12.350;2022-09-27T02:25:58;98210.34;;;12.12;82.98
66681;BME280;53575;51.366;12.350;2022-09-27T02:28:39;98198.47;;;12.05;83.84
66681;BME280;53575;51.366;12.350;2022-09-27T02:31:06;98205.91;;;12.14;83.38
66681;BME280;53575;51.366;12.350;2022-09-27T02:33:44;98201.59;;;12.13;83.84
66681;BME280;53575;51.366;12.350;2022-09-27T02:36:11;98196.63;;;12.07;84.50
66681;BME280;53575;51.366;12.350;2022-09-27T02:38:37;98200.94;;;12.08;83.37
66681;BME280;53575;51.366;12.350;2022-09-27T02:41:02;98197.84;;;12.19;83.35
66681;BME280;53575;51.366;12.350;2022-09-27T02:43:30;98191.63;;;12.22;82.60
66681;BME280;53575;51.366;12.350;2022-09-27T02:46:01;98193.94;;;12.28;82.20
66681;BME280;53575;51.366;12.350;2022-09-27T02:57:12;98190.19;;;12.33;82.67
66681;BME280;53575;51.366;12.350;2022-09-27T02:59:47;98184.66;;;12.20;82.95
66681;BME280;53575;51.366;12.350;2022-09-27T03:04:55;98181.84;;;12.06;86.21
66681;BME280;53575;51.366;12.350;2022-09-27T03:07:23;98178.56;;;12.01;85.67
66681;BME280;53575;51.366;12.350;2022-09-27T03:09:51;98174.84;;;12.07;86.31
66681;BME280;53575;51.366;12.350;2022-09-27T03:12:17;98178.03;;;12.13;84.99
66681;BME280;53575;51.366;12.350;2022-09-27T03:14:57;98188.28;;;11.99;86.32
66681;BME280;53575;51.366;12.350;2022-09-27T03:17:22;98148.53;;;11.70;88.45
66681;BME280;53575;51.366;12.350;2022-09-27T03:19:48;98181.38;;;11.98;86.47
66681;BME280;53575;51.366;12.350;2022-09-27T03:22:14;98175.47;;;11.93;87.70
66681;BME280;53575;51.366;12.350;2022-09-27T03:24:40;98175.59;;;11.90;86.80
66681;BME280;53575;51.366;12.350;2022-09-27T03:27:06;98175.59;;;11.90;87.20
66681;BME280;53575;51.366;12.350;2022-09-27T03:29:31;98175.91;;;11.84;87.64
66681;BME280;53575;51.366;12.350;2022-09-27T03:31:57;98170.66;;;11.84;87.91
66681;BME280;53575;51.366;12.350;2022-09-27T03:34:22;98178.53;;;11.84;88.24
66681;BME280;53575;51.366;12.350;2022-09-27T03:36:48;98176.75;;;11.84;89.51
66681;BME280;53575;51.366;12.350;2022-09-27T03:39:14;98172.16;;;11.69;90.40
66681;BME280;53575;51.366;12.350;2022-09-27T03:41:39;98174.00;;;11.67;90.06
66681;BME280;53575;51.366;12.350;2022-09-27T03:44:05;98169.69;;;11.66;90.63
66681;BME280;53575;51.366;12.350;2022-09-27T03:46:30;98169.09;;;11.59;91.45
66681;BME280;53575;51.366;12.350;2022-09-27T03:48:56;98166.44;;;11.61;91.60
66681;BME280;53575;51.366;12.350;2022-09-27T03:51:21;98168.91;;;11.64;93.20
66681;BME280;53575;51.366;12.350;2022-09-27T03:53:47;98156.53;;;11.49;94.35
66681;BME280;53575;51.366;12.350;2022-09-27T03:56:12;98167.03;;;11.47;95.38
66681;BME280;53575;51.366;12.350;2022-09-27T03:58:38;98169.72;;;11.45;95.36
66681;BME280;53575;51.366;12.350;2022-09-27T04:01:03;98166.03;;;11.31;97.35
66681;BME280;53575;51.366;12.350;2022-09-27T04:03:29;98163.63;;;11.26;97.84
66681;BME280;53575;51.366;12.350;2022-09-27T04:05:54;98160.28;;;11.22;98.11
66681;BME280;53575;51.366;12.350;2022-09-27T04:08:20;98149.34;;;11.13;99.17
66681;BME280;53575;51.366;12.350;2022-09-27T04:10:46;98150.91;;;11.17;99.59
66681;BME280;53575;51.366;12.350;2022-09-27T04:13:12;98150.06;;;11.16;100.00
66681;BME280;53575;51.366;12.350;2022-09-27T04:15:37;98152.03;;;11.11;100.00
66681;BME280;53575;51.366;12.350;2022-09-27T04:18:04;98149.69;;;11.05;100.00
66681;BME280;53575;51.366;12.350;2022-09-27T04:20:29;98149.16;;;10.97;100.00
66681;BME280;53575;51.366;12.350;2022-09-27T04:22:55;98141.06;;;11.03;100.00
66681;BME280;53575;51.366;12.350;2022-09-27T04:25:20;98147.47;;;10.96;100.00
66681;BME280;53575;51.366;12.350;2022-09-27T04:27:45;98149.81;;;11.02;100.00
66681;BME280;53575;51.366;12.350;2022-09-27T04:30:13;98146.31;;;11.03;100.00
66681;BME280;53575;51.366;12.350;2022-09-27T04:32:42;98146.03;;;10.89;100.00
66681;BME280;53575;51.366;12.350;2022-09-27T04:35:08;98137.22;;;10.91;100.00
66681;BME280;53575;51.366;12.350;2022-09-27T04:37:52;98141.44;;;10.94;100.00
66681;BME280;53575;51.366;12.350;2022-09-27T04:40:17;98138.06;;;10.92;100.00
66681;BME280;53575;51.366;12.350;2022-09-27T04:42:44;98139.88;;;10.90;100.00
66681;BME280;53575;51.366;12.350;2022-09-27T04:45:09;98135.63;;;10.87;100.00
66681;BME280;53575;51.366;12.350;2022-09-27T04:47:44;98135.56;;;10.89;100.00
66681;BME280;53575;51.366;12.350;2022-09-27T04:50:11;98138.31;;;10.86;100.00
66681;BME280;53575;51.366;12.350;2022-09-27T04:52:36;98137.47;;;10.85;100.00
66681;BME280;53575;51.366;12.350;2022-09-27T04:55:03;98146.94;;;10.88;100.00
66681;BME280;53575;51.366;12.350;2022-09-27T04:57:28;98136.75;;;10.82;100.00
66681;BME280;53575;51.366;12.350;2022-09-27T04:59:53;98141.31;;;10.77;100.00
66681;BME280;53575;51.366;12.350;2022-09-27T05:02:19;98135.91;;;10.81;100.00
66681;BME280;53575;51.366;12.350;2022-09-27T05:04:44;98136.34;;;10.91;100.00
66681;BME280;53575;51.366;12.350;2022-09-27T05:07:10;98133.72;;;10.91;100.00
66681;BME280;53575;51.366;12.350;2022-09-27T05:09:35;98129.75;;;10.82;100.00
66681;BME280;53575;51.366;12.350;2022-09-27T05:12:01;98128.81;;;10.83;100.00
66681;BME280;53575;51.366;12.350;2022-09-27T05:14:26;98135.81;;;10.83;100.00
66681;BME280;53575;51.366;12.350;2022-09-27T05:16:53;98140.72;;;10.70;100.00
66681;BME280;53575;51.366;12.350;2022-09-27T05:19:18;98141.75;;;10.66;100.00
66681;BME280;53575;51.366;12.350;2022-09-27T05:21:43;98146.03;;;10.68;100.00
66681;BME280;53575;51.366;12.350;2022-09-27T05:24:09;98143.84;;;10.78;100.00
66681;BME280;53575;51.366;12.350;2022-09-27T05:26:34;98141.50;;;10.72;100.00
66681;BME280;53575;51.366;12.350;2022-09-27T05:29:02;98139.75;;;10.72;100.00
66681;BME280;53575;51.366;12.350;2022-09-27T05:31:27;98145.44;;;10.82;100.00
66681;BME280;53575;51.366;12.350;2022-09-27T05:33:56;98137.34;;;10.88;100.00
66681;BME280;53575;51.366;12.350;2022-09-27T05:36:21;98134.59;;;10.91;100.00
66681;BME280;53575;51.366;12.350;2022-09-27T05:38:47;98133.06;;;11.06;100.00
66681;BME280;53575;51.366;12.350;2022-09-27T05:41:13;98144.00;;;10.95;100.00
66681;BME280;53575;51.366;12.350;2022-09-27T05:43:39;98134.13;;;11.02;100.00
66681;BME280;53575;51.366;12.350;2022-09-27T05:46:04;98139.19;;;11.07;100.00
66681;BME280;53575;51.366;12.350;2022-09-27T05:48:30;98140.47;;;10.96;100.00
66681;BME280;53575;51.366;12.350;2022-09-27T05:50:56;98131.47;;;11.04;100.00
66681;BME280;53575;51.366;12.350;2022-09-27T05:53:21;98126.97;;;11.07;100.00
66681;BME280;53575;51.366;12.350;2022-09-27T05:55:47;98130.41;;;11.08;100.00
66681;BME280;53575;51.366;12.350;2022-09-27T05:58:13;98132.81;;;11.12;100.00
66681;BME280;53575;51.366;12.350;2022-09-27T06:00:41;98142.47;;;11.10;100.00
66681;BME280;53575;51.366;12.350;2022-09-27T06:03:07;98127.84;;;11.06;100.00
66681;BME280;53575;51.366;12.350;2022-09-27T06:05:36;98133.47;;;10.97;100.00
66681;BME280;53575;51.366;12.350;2022-09-27T06:08:05;98133.53;;;11.16;100.00
66681;BME280;53575;51.366;12.350;2022-09-27T06:10:31;98129.63;;;11.26;100.00
66681;BME280;53575;51.366;12.350;2022-09-27T06:13:01;98136.66;;;11.24;100.00
66681;BME280;53575;51.366;12.350;2022-09-27T06:15:28;98131.41;;;11.26;100.00
66681;BME280;53575;51.366;12.350;2022-09-27T06:17:54;98137.38;;;11.28;100.00
66681;BME280;53575;51.366;12.350;2022-09-27T06:20:19;98136.34;;;11.32;100.00
66681;BME280;53575;51.366;12.350;2022-09-27T06:22:45;98139.91;;;11.29;100.00
66681;BME280;53575;51.366;12.350;2022-09-27T06:25:11;98139.06;;;11.29;100.00
66681;BME280;53575;51.366;12.350;2022-09-27T06:27:36;98138.31;;;11.27;100.00
66681;BME280;53575;51.366;12.350;2022-09-27T06:30:03;98146.41;;;11.20;100.00
66681;BME280;53575;51.366;12.350;2022-09-27T06:32:29;98148.81;;;11.25;100.00
66681;BME280;53575;51.366;12.350;2022-09-27T06:34:54;98145.56;;;11.20;100.00
66681;BME280;53575;51.366;12.350;2022-09-27T06:37:24;98156.53;;;11.28;100.00
66681;BME280;53575;51.366;12.350;2022-09-27T06:39:50;98155.28;;;11.37;100.00
66681;BME280;53575;51.366;12.350;2022-09-27T06:42:17;98168.44;;;11.35;100.00
66681;BME280;53575;51.366;12.350;2022-09-27T06:44:42;98164.13;;;11.34;100.00
66681;BME280;53575;51.366;12.350;2022-09-27T06:47:08;98159.22;;;11.27;100.00
66681;BME280;53575;51.366;12.350;2022-09-27T06:49:33;98153.28;;;11.23;100.00
66681;BME280;53575;51.366;12.350;2022-09-27T06:51:59;98155.56;;;11.31;100.00
66681;BME280;53575;51.366;12.350;2022-09-27T06:54:24;98158.06;;;11.34;100.00
66681;BME280;53575;51.366;12.350;2022-09-27T06:56:49;98155.44;;;11.34;100.00
66681;BME280;53575;51.366;12.350;2022-09-27T06:59:15;98155.94;;;11.42;100.00
66681;BME280;53575;51.366;12.350;2022-09-27T07:01:59;98160.03;;;11.47;100.00
66681;BME280;53575;51.366;12.350;2022-09-27T07:04:25;98161.31;;;11.39;100.00
66681;BME280;53575;51.366;12.350;2022-09-27T07:06:50;98162.78;;;11.44;100.00
66681;BME280;53575;51.366;12.350;2022-09-27T07:09:15;98157.16;;;11.54;100.00
66681;BME280;53575;51.366;12.350;2022-09-27T07:11:41;98161.63;;;11.70;100.00
66681;BME280;53575;51.366;12.350;2022-09-27T07:14:09;98147.69;;;11.70;99.46
66681;BME280;53575;51.366;12.350;2022-09-27T07:16:36;98162.28;;;11.76;100.00
66681;BME280;53575;51.366;12.350;2022-09-27T07:19:02;98164.69;;;11.80;99.36
66681;BME280;53575;51.366;12.350;2022-09-27T07:21:28;98159.50;;;11.79;98.97
66681;BME280;53575;51.366;12.350;2022-09-27T07:23:53;98167.34;;;11.79;99.03
66681;BME280;53575;51.366;12.350;2022-09-27T07:26:18;98172.47;;;11.82;98.77
66681;BME280;53575;51.366;12.350;2022-09-27T07:28:44;98178.38;;;11.87;99.03
66681;BME280;53575;51.366;12.350;2022-09-27T07:31:10;98175.19;;;11.99;99.09
66681;BME280;53575;51.366;12.350;2022-09-27T07:33:36;98180.13;;;12.05;99.55
66681;BME280;53575;51.366;12.350;2022-09-27T07:36:08;98179.16;;;12.27;97.55
66681;BME280;53575;51.366;12.350;2022-09-27T07:38:35;98186.41;;;12.39;95.87
66681;BME280;53575;51.366;12.350;2022-09-27T07:41:11;98189.59;;;12.46;95.25
66681;BME280;53575;51.366;12.350;2022-09-27T07:43:38;98179.25;;;12.42;96.27
66681;BME280;53575;51.366;12.350;2022-09-27T07:46:04;98188.09;;;12.40;95.87
66681;BME280;53575;51.366;12.350;2022-09-27T07:48:30;98191.44;;;12.43;95.93
66681;BME280;53575;51.366;12.350;2022-09-27T07:50:56;98192.00;;;12.31;95.92
66681;BME280;53575;51.366;12.350;2022-09-27T07:53:21;98190.06;;;12.36;96.25
66681;BME280;53575;51.366;12.350;2022-09-27T07:55:51;98186.84;;;12.49;95.27
66681;BME280;53575;51.366;12.350;2022-09-27T07:58:21;98186.00;;;12.48;94.87
66681;BME280;53575;51.366;12.350;2022-09-27T08:00:46;98182.34;;;12.51;93.79
66681;BME280;53575;51.366;12.350;2022-09-27T08:03:16;98186.53;;;12.55;93.51
66681;BME280;53575;51.366;12.350;2022-09-27T08:05:43;98182.63;;;12.63;92.55
66681;BME280;53575;51.366;12.350;2022-09-27T08:08:09;98187.94;;;12.62;91.91
66681;BME280;53575;51.366;12.350;2022-09-27T08:10:35;98184.38;;;12.63;92.45
66681;BME280;53575;51.366;12.350;2022-09-27T08:13:01;98186.00;;;12.65;90.85
66681;BME280;53575;51.366;12.350;2022-09-27T08:15:29;98191.91;;;12.71;91.62
66681;BME280;53575;51.366;12.350;2022-09-27T08:17:55;98190.69;;;12.95;90.69
66681;BME280;53575;51.366;12.350;2022-09-27T08:20:20;98186.44;;;13.10;89.81
66681;BME280;53575;51.366;12.350;2022-09-27T08:22:45;98183.59;;;13.14;88.60
66681;BME280;53575;51.366;12.350;2022-09-27T08:25:11;98197.94;;;13.07;89.05
66681;BME280;53575;51.366;12.350;2022-09-27T08:27:36;98199.00;;;12.86;89.02
66681;BME280;53575;51.366;12.350;2022-09-27T08:30:02;98201.00;;;12.81;89.24
66681;BME280;53575;51.366;12.350;2022-09-27T08:32:28;98197.44;;;12.82;89.18
66681;BME280;53575;51.366;12.350;2022-09-27T08:34:55;98200.94;;;12.82;89.45
66681;BME280;53575;51.366;12.350;2022-09-27T08:37:20;98205.06;;;12.69;90.63
66681;BME280;53575;51.366;12.350;2022-09-27T08:39:46;98218.09;;;12.71;91.54
66681;BME280;53575;51.366;12.350;2022-09-27T08:42:18;98218.66;;;12.58;92.20
66681;BME280;53575;51.366;12.350;2022-09-27T08:45:02;98212.81;;;12.53;92.10
66681;BME280;53575;51.366;12.350;2022-09-27T08:47:33;98214.00;;;12.46;91.78
66681;BME280;53575;51.366;12.350;2022-09-27T08:52:38;98221.16;;;12.05;94.29
66681;BME280;53575;51.366;12.350;2022-09-27T08:55:22;98229.09;;;11.84;93.78
66681;BME280;53575;51.366;12.350;2022-09-27T08:57:53;98236.06;;;11.63;94.31
66681;BME280;53575;51.366;12.350;2022-09-27T09:00:19;98233.72;;;11.57;93.09
66681;BME280;53575;51.366;12.350;2022-09-27T09:02:45;98235.16;;;11.64;93.23
66681;BME280;53575;51.366;12.350;2022-09-27T09:05:16;98231.41;;;11.70;91.14
66681;BME280;53575;51.366;12.350;2022-09-27T09:25:08;98250.97;;;11.82;83.27
66681;BME280;53575;51.366;12.350;2022-09-27T09:30:24;98272.34;;;12.12;82.31
66681;BME280;53575;51.366;12.350;2022-09-27T09:35:42;98268.00;;;11.92;81.92
66681;BME280;53575;51.366;12.350;2022-09-27T09:38:26;98280.94;;;11.75;83.95
66681;BME280;53575;51.366;12.350;2022-09-27T09:40:59;98287.63;;;11.61;83.68
66681;BME280;53575;51.366;12.350;2022-09-27T09:43:53;98289.38;;;11.40;85.35
66681;BME280;53575;51.366;12.350;2022-09-27T09:46:25;98301.94;;;11.53;86.81
66681;BME280;53575;51.366;12.350;2022-09-27T09:48:53;98313.16;;;11.34;88.82
66681;BME280;53575;51.366;12.350;2022-09-27T09:51:26;98316.75;;;11.10;91.53
66681;BME280;53575;51.366;12.350;2022-09-27T09:56:33;98314.41;;;10.82;96.90
66681;BME280;53575;51.366;12.350;2022-09-27T09:59:28;98312.22;;;10.71;97.78
66681;BME280;53575;51.366;12.350;2022-09-27T10:02:11;98320.97;;;10.92;96.90
66681;BME280;53575;51.366;12.350;2022-09-27T10:04:39;98308.56;;;10.97;96.12
66681;BME280;53575;51.366;12.350;2022-09-27T10:07:05;98308.69;;;11.16;94.20
66681;BME280;53575;51.366;12.350;2022-09-27T10:09:30;98312.25;;;11.35;95.41
66681;BME280;53575;51.366;12.350;2022-09-27T10:11:57;98306.47;;;11.49;95.33
66681;BME280;53575;51.366;12.350;2022-09-27T10:14:25;98311.81;;;11.66;94.64
66681;BME280;53575;51.366;12.350;2022-09-27T10:16:57;98317.31;;;11.60;94.04
66681;BME280;53575;51.366;12.350;2022-09-27T10:19:29;98320.91;;;11.58;95.48
66681;BME280;53575;51.366;12.350;2022-09-27T10:22:41;98323.19;;;11.65;94.80
66681;BME280;53575;51.366;12.350;2022-09-27T10:25:01;98319.97;;;11.38;95.65
66681;BME280;53575;51.366;12.350;2022-09-27T10:27:37;98325.72;;;11.26;97.37
66681;BME280;53575;51.366;12.350;2022-09-27T10:30:04;98322.94;;;11.29;100.00
66681;BME280;53575;51.366;12.350;2022-09-27T10:32:33;98324.91;;;11.24;99.94
66681;BME280;53575;51.366;12.350;2022-09-27T10:37:45;98322.78;;;11.12;99.71
66681;BME280;53575;51.366;12.350;2022-09-27T10:40:29;98328.75;;;11.15;100.00
66681;BME280;53575;51.366;12.350;2022-09-27T10:42:54;98339.19;;;11.37;98.91
66681;BME280;53575;51.366;12.350;2022-09-27T10:47:48;98331.63;;;11.52;99.06
66681;BME280;53575;51.366;12.350;2022-09-27T10:50:23;98340.13;;;11.57;98.02
66681;BME280;53575;51.366;12.350;2022-09-27T10:53:03;98335.72;;;11.79;97.35
66681;BME280;53575;51.366;12.350;2022-09-27T10:55:32;98337.22;;;11.85;96.59
66681;BME280;53575;51.366;12.350;2022-09-27T10:57:58;98340.78;;;11.82;97.74
66681;BME280;53575;51.366;12.350;2022-09-27T11:00:32;98337.56;;;11.55;96.41
66681;BME280;53575;51.366;12.350;2022-09-27T11:03:05;98352.69;;;11.49;99.74
66681;BME280;53575;51.366;12.350;2022-09-27T11:05:34;98359.72;;;11.46;99.55
66681;BME280;53575;51.366;12.350;2022-09-27T11:08:28;98357.31;;;11.42;96.93
66681;BME280;53575;51.366;12.350;2022-09-27T11:13:32;98348.94;;;11.97;95.64
66681;BME280;53575;51.366;12.350;2022-09-27T11:22:17;98355.75;;;12.59;92.96
66681;BME280;53575;51.366;12.350;2022-09-27T11:35:24;98364.75;;;12.53;88.96
66681;BME280;53575;51.366;12.350;2022-09-27T11:43:31;98381.00;;;12.02;87.53
66681;BME280;53575;51.366;12.350;2022-09-27T11:51:37;98365.06;;;11.65;85.83
66681;BME280;53575;51.366;12.350;2022-09-27T12:10:18;98366.53;;;11.93;86.77
66681;BME280;53575;51.366;12.350;2022-09-27T12:12:51;98367.09;;;12.20;86.88
66681;BME280;53575;51.366;12.350;2022-09-27T12:15:25;98363.25;;;12.29;87.33
66681;BME280;53575;51.366;12.350;2022-09-27T12:18:44;98358.47;;;12.57;85.79
66681;BME280;53575;51.366;12.350;2022-09-27T12:20:45;98356.81;;;12.92;85.90
66681;BME280;53575;51.366;12.350;2022-09-27T12:23:21;98354.91;;;12.96;85.59
66681;BME280;53575;51.366;12.350;2022-09-27T12:25:51;98358.00;;;13.04;85.41
66681;BME280;53575;51.366;12.350;2022-09-27T12:28:40;98354.56;;;12.85;86.26
66681;BME280;53575;51.366;12.350;2022-09-27T12:31:20;98355.50;;;12.84;86.60
66681;BME280;53575;51.366;12.350;2022-09-27T12:36:25;98350.59;;;12.76;86.07
66681;BME280;53575;51.366;12.350;2022-09-27T12:41:43;98360.47;;;12.71;83.90
66681;BME280;53575;51.366;12.350;2022-09-27T12:44:11;98359.41;;;12.75;82.18
66681;BME280;53575;51.366;12.350;2022-09-27T12:49:45;98354.50;;;13.05;80.48
66681;BME280;53575;51.366;12.350;2022-09-27T12:52:18;98348.50;;;13.39;79.43
66681;BME280;53575;51.366;12.350;2022-09-27T12:55:02;98347.59;;;13.75;76.66
66681;BME280;53575;51.366;12.350;2022-09-27T13:10:14;98342.00;;;15.44;69.79
66681;BME280;53575;51.366;12.350;2022-09-27T13:12:48;98334.41;;;15.70;64.60
66681;BME280;53575;51.366;12.350;2022-09-27T13:15:28;98338.56;;;15.58;64.31
66681;BME280;53575;51.366;12.350;2022-09-27T13:17:57;98350.38;;;15.05;65.15
66681;BME280;53575;51.366;12.350;2022-09-27T13:22:53;98344.81;;;14.29;71.23
66681;BME280;53575;51.366;12.350;2022-09-27T13:25:57;98349.66;;;14.54;70.09
66681;BME280;53575;51.366;12.350;2022-09-27T13:30:53;98341.69;;;14.55;69.63
66681;BME280;53575;51.366;12.350;2022-09-27T13:44:36;98367.13;;;14.55;65.28
66681;BME280;53575;51.366;12.350;2022-09-27T13:47:24;98371.56;;;15.49;62.01
66681;BME280;53575;51.366;12.350;2022-09-27T13:50:01;98374.03;;;15.21;62.23
66681;BME280;53575;51.366;12.350;2022-09-27T13:52:35;98366.47;;;14.99;62.93
66681;BME280;53575;51.366;12.350;2022-09-27T13:55:06;98366.16;;;15.05;62.63
66681;BME280;53575;51.366;12.350;2022-09-27T13:58:04;98369.78;;;14.71;63.82
66681;BME280;53575;51.366;12.350;2022-09-27T14:00:43;98371.59;;;14.53;66.17
66681;BME280;53575;51.366;12.350;2022-09-27T14:05:57;98380.00;;;14.09;69.00
66681;BME280;53575;51.366;12.350;2022-09-27T14:11:12;98386.94;;;14.27;67.94
66681;BME280;53575;51.366;12.350;2022-09-27T14:13:38;98404.19;;;13.98;65.79
66681;BME280;53575;51.366;12.350;2022-09-27T14:16:06;98411.72;;;13.70;65.75
66681;BME280;53575;51.366;12.350;2022-09-27T14:18:33;98417.81;;;13.15;66.08
66681;BME280;53575;51.366;12.350;2022-09-27T14:21:10;98420.47;;;12.96;66.37
66681;BME280;53575;51.366;12.350;2022-09-27T14:23:39;98421.47;;;12.54;66.59
66681;BME280;53575;51.366;12.350;2022-09-27T14:26:04;98418.59;;;12.60;67.50
66681;BME280;53575;51.366;12.350;2022-09-27T14:28:38;98427.19;;;12.43;66.38
66681;BME280;53575;51.366;12.350;2022-09-27T14:33:33;98436.81;;;12.43;66.80
66681;BME280;53575;51.366;12.350;2022-09-27T14:35:59;98427.47;;;13.14;63.56
66681;BME280;53575;51.366;12.350;2022-09-27T14:38:44;98428.41;;;13.69;61.54
66681;BME280;53575;51.366;12.350;2022-09-27T14:41:09;98416.59;;;13.77;61.62
66681;BME280;53575;51.366;12.350;2022-09-27T14:43:41;98412.94;;;14.67;59.75
66681;BME280;53575;51.366;12.350;2022-09-27T14:46:26;98423.84;;;14.92;57.73
66681;BME280;53575;51.366;12.350;2022-09-27T14:48:52;98412.97;;;14.98;57.70
66681;BME280;53575;51.366;12.350;2022-09-27T14:51:29;98425.28;;;14.98;55.20
66681;BME280;53575;51.366;12.350;2022-09-27T14:53:57;98424.03;;;14.38;55.91
66681;BME280;53575;51.366;12.350;2022-09-27T14:56:30;98417.84;;;14.22;57.75
66681;BME280;53575;51.366;12.350;2022-09-27T14:59:08;98433.63;;;14.05;57.91
66681;BME280;53575;51.366;12.350;2022-09-27T15:01:35;98425.03;;;13.84;57.65
66681;BME280;53575;51.366;12.350;2022-09-27T15:04:05;98427.19;;;13.58;58.43
66681;BME280;53575;51.366;12.350;2022-09-27T15:06:34;98424.84;;;13.52;58.51
66681;BME280;53575;51.366;12.350;2022-09-27T15:09:02;98422.31;;;13.32;59.08
66681;BME280;53575;51.366;12.350;2022-09-27T15:11:28;98427.25;;;13.19;59.96
66681;BME280;53575;51.366;12.350;2022-09-27T15:13:58;98426.00;;;13.09;60.29
66681;BME280;53575;51.366;12.350;2022-09-27T15:16:26;98428.69;;;13.07;59.91
66681;BME280;53575;51.366;12.350;2022-09-27T15:19:14;98425.44;;;13.02;60.55
66681;BME280;53575;51.366;12.350;2022-09-27T15:21:41;98425.00;;;12.92;60.96
66681;BME280;53575;51.366;12.350;2022-09-27T15:24:39;98434.00;;;12.87;61.33
66681;BME280;53575;51.366;12.350;2022-09-27T15:27:16;98433.50;;;12.79;61.73
66681;BME280;53575;51.366;12.350;2022-09-27T15:29:51;98445.31;;;12.68;63.11
66681;BME280;53575;51.366;12.350;2022-09-27T15:32:20;98430.06;;;12.58;62.71
66681;BME280;53575;51.366;12.350;2022-09-27T15:34:46;98434.19;;;12.63;62.99
66681;BME280;53575;51.366;12.350;2022-09-27T15:40:56;98428.66;;;12.69;63.61
66681;BME280;53575;51.366;12.350;2022-09-27T15:42:54;98430.63;;;12.64;64.05
66681;BME280;53575;51.366;12.350;2022-09-27T15:45:34;98443.22;;;12.56;64.42
66681;BME280;53575;51.366;12.350;2022-09-27T15:48:19;98446.81;;;12.54;64.31
66681;BME280;53575;51.366;12.350;2022-09-27T15:50:46;98453.75;;;12.55;65.06
66681;BME280;53575;51.366;12.350;2022-09-27T15:55:58;98455.16;;;12.43;65.49